sensor_id;sensor_type;location;lat;lon;timestamp;P1;durP1;ratioP1;P2;durP2;ratioP2
42478;SDS011;28110;47.080;9.476;2023-06-22T00:01:49;19.10;;;4.38;;
42478;SDS011;28110;47.080;9.476;2023-06-22T00:04:15;14.90;;;4.43;;
42478;SDS011;28110;47.080;9.476;2023-06-22T00:06:40;13.77;;;3.90;;
42478;SDS011;28110;47.080;9.476;2023-06-22T00:09:06;18.90;;;4.80;;
42478;SDS011;28110;47.080;9.476;2023-06-22T00:11:32;16.60;;;4.63;;
42478;SDS011;28110;47.080;9.476;2023-06-22T00:13:58;13.65;;;4.50;;
42478;SDS011;28110;47.080;9.476;2023-06-22T00:16:24;16.33;;;4.32;;
42478;SDS011;28110;47.080;9.476;2023-06-22T00:18:50;18.13;;;4.20;;
42478;SDS011;28110;47.080;9.476;2023-06-22T00:21:15;16.33;;;4.32;;
42478;SDS011;28110;47.080;9.476;2023-06-22T00:23:41;17.70;;;4.37;;
42478;SDS011;28110;47.080;9.476;2023-06-22T00:26:07;16.93;;;4.53;;
42478;SDS011;28110;47.080;9.476;2023-06-22T00:28:33;16.57;;;4.60;;
42478;SDS011;28110;47.080;9.476;2023-06-22T00:30:59;15.88;;;4.80;;
42478;SDS011;28110;47.080;9.476;2023-06-22T00:33:25;18.90;;;4.53;;
42478;SDS011;28110;47.080;9.476;2023-06-22T00:35:51;18.20;;;4.68;;
42478;SDS011;28110;47.080;9.476;2023-06-22T00:38:18;18.13;;;4.80;;
42478;SDS011;28110;47.080;9.476;2023-06-22T00:40:44;25.92;;;4.90;;
42478;SDS011;28110;47.080;9.476;2023-06-22T00:43:09;14.73;;;4.10;;
42478;SDS011;28110;47.080;9.476;2023-06-22T00:45:35;19.05;;;4.70;;
42478;SDS011;28110;47.080;9.476;2023-06-22T00:48:01;17.47;;;4.50;;
42478;SDS011;28110;47.080;9.476;2023-06-22T00:50:31;10.55;;;4.65;;
42478;SDS011;28110;47.080;9.476;2023-06-22T00:53:01;21.40;;;4.75;;
42478;SDS011;28110;47.080;9.476;2023-06-22T00:55:33;17.52;;;4.57;;
42478;SDS011;28110;47.080;9.476;2023-06-22T00:58:08;16.05;;;4.50;;
42478;SDS011;28110;47.080;9.476;2023-06-22T01:00:35;15.03;;;4.70;;
42478;SDS011;28110;47.080;9.476;2023-06-22T01:03:01;17.00;;;4.38;;
42478;SDS011;28110;47.080;9.476;2023-06-22T01:05:27;16.25;;;4.40;;
42478;SDS011;28110;47.080;9.476;2023-06-22T01:08:16;20.15;;;4.72;;
42478;SDS011;28110;47.080;9.476;2023-06-22T01:11:16;16.70;;;4.50;;
42478;SDS011;28110;47.080;9.476;2023-06-22T01:13:52;16.47;;;4.93;;
42478;SDS011;28110;47.080;9.476;2023-06-22T01:16:30;13.45;;;4.80;;
42478;SDS011;28110;47.080;9.476;2023-06-22T01:19:12;18.48;;;4.88;;
42478;SDS011;28110;47.080;9.476;2023-06-22T01:22:00;19.15;;;5.10;;
42478;SDS011;28110;47.080;9.476;2023-06-22T01:24:32;18.48;;;4.88;;
42478;SDS011;28110;47.080;9.476;2023-06-22T01:27:13;20.47;;;4.80;;
42478;SDS011;28110;47.080;9.476;2023-06-22T01:29:59;16.27;;;4.68;;
42478;SDS011;28110;47.080;9.476;2023-06-22T01:32:28;14.93;;;4.50;;
42478;SDS011;28110;47.080;9.476;2023-06-22T01:34:57;18.10;;;4.63;;
42478;SDS011;28110;47.080;9.476;2023-06-22T01:37:24;19.80;;;4.30;;
42478;SDS011;28110;47.080;9.476;2023-06-22T01:39:51;19.37;;;4.87;;
42478;SDS011;28110;47.080;9.476;2023-06-22T01:42:18;16.67;;;4.32;;
42478;SDS011;28110;47.080;9.476;2023-06-22T01:44:44;20.77;;;4.85;;
42478;SDS011;28110;47.080;9.476;2023-06-22T01:47:10;20.85;;;4.90;;
42478;SDS011;28110;47.080;9.476;2023-06-22T01:49:38;20.05;;;4.70;;
42478;SDS011;28110;47.080;9.476;2023-06-22T01:52:06;15.83;;;4.87;;
42478;SDS011;28110;47.080;9.476;2023-06-22T01:54:32;16.30;;;5.22;;
42478;SDS011;28110;47.080;9.476;2023-06-22T01:56:57;17.90;;;4.93;;
42478;SDS011;28110;47.080;9.476;2023-06-22T01:59:33;24.50;;;4.70;;
42478;SDS011;28110;47.080;9.476;2023-06-22T02:02:04;20.48;;;4.88;;
42478;SDS011;28110;47.080;9.476;2023-06-22T02:07:05;21.87;;;5.40;;
42478;SDS011;28110;47.080;9.476;2023-06-22T02:09:35;16.25;;;4.20;;
42478;SDS011;28110;47.080;9.476;2023-06-22T02:12:02;15.25;;;4.72;;
42478;SDS011;28110;47.080;9.476;2023-06-22T02:14:31;21.13;;;5.07;;
42478;SDS011;28110;47.080;9.476;2023-06-22T02:16:57;17.63;;;4.95;;
42478;SDS011;28110;47.080;9.476;2023-06-22T02:19:26;13.87;;;4.63;;
42478;SDS011;28110;47.080;9.476;2023-06-22T02:21:52;17.38;;;4.63;;
42478;SDS011;28110;47.080;9.476;2023-06-22T02:24:18;26.80;;;5.93;;
42478;SDS011;28110;47.080;9.476;2023-06-22T02:26:43;21.47;;;5.10;;
42478;SDS011;28110;47.080;9.476;2023-06-22T02:29:10;21.02;;;4.43;;
42478;SDS011;28110;47.080;9.476;2023-06-22T02:31:36;17.33;;;5.10;;
42478;SDS011;28110;47.080;9.476;2023-06-22T02:34:01;18.70;;;4.90;;
42478;SDS011;28110;47.080;9.476;2023-06-22T02:36:27;20.60;;;4.63;;
42478;SDS011;28110;47.080;9.476;2023-06-22T02:38:55;21.52;;;5.03;;
42478;SDS011;28110;47.080;9.476;2023-06-22T02:41:23;31.08;;;4.82;;
42478;SDS011;28110;47.080;9.476;2023-06-22T02:43:49;19.40;;;4.87;;
42478;SDS011;28110;47.080;9.476;2023-06-22T02:46:14;20.20;;;4.70;;
42478;SDS011;28110;47.080;9.476;2023-06-22T02:48:40;15.05;;;4.30;;
42478;SDS011;28110;47.080;9.476;2023-06-22T02:51:06;15.30;;;5.03;;
42478;SDS011;28110;47.080;9.476;2023-06-22T02:53:32;19.77;;;4.43;;
42478;SDS011;28110;47.080;9.476;2023-06-22T02:55:57;19.93;;;4.50;;
42478;SDS011;28110;47.080;9.476;2023-06-22T02:58:23;20.13;;;4.78;;
42478;SDS011;28110;47.080;9.476;2023-06-22T03:00:49;18.63;;;4.30;;
42478;SDS011;28110;47.080;9.476;2023-06-22T03:03:18;21.40;;;4.50;;
42478;SDS011;28110;47.080;9.476;2023-06-22T03:05:43;23.52;;;4.53;;
42478;SDS011;28110;47.080;9.476;2023-06-22T03:08:09;17.40;;;4.93;;
42478;SDS011;28110;47.080;9.476;2023-06-22T03:10:34;22.90;;;4.57;;
42478;SDS011;28110;47.080;9.476;2023-06-22T03:13:00;16.77;;;4.77;;
42478;SDS011;28110;47.080;9.476;2023-06-22T03:15:26;17.73;;;4.80;;
42478;SDS011;28110;47.080;9.476;2023-06-22T03:17:54;24.08;;;5.32;;
42478;SDS011;28110;47.080;9.476;2023-06-22T03:20:19;18.65;;;4.38;;
42478;SDS011;28110;47.080;9.476;2023-06-22T03:22:45;19.40;;;4.40;;
42478;SDS011;28110;47.080;9.476;2023-06-22T03:25:11;17.33;;;4.60;;
42478;SDS011;28110;47.080;9.476;2023-06-22T03:27:38;21.73;;;4.93;;
42478;SDS011;28110;47.080;9.476;2023-06-22T03:30:05;15.52;;;4.38;;
42478;SDS011;28110;47.080;9.476;2023-06-22T03:32:32;21.08;;;4.50;;
42478;SDS011;28110;47.080;9.476;2023-06-22T03:34:57;25.77;;;4.70;;
42478;SDS011;28110;47.080;9.476;2023-06-22T03:37:24;19.50;;;4.75;;
42478;SDS011;28110;47.080;9.476;2023-06-22T03:39:50;17.95;;;4.35;;
42478;SDS011;28110;47.080;9.476;2023-06-22T03:42:16;19.67;;;5.30;;
42478;SDS011;28110;47.080;9.476;2023-06-22T03:44:42;26.03;;;4.70;;
42478;SDS011;28110;47.080;9.476;2023-06-22T03:47:07;19.97;;;4.70;;
42478;SDS011;28110;47.080;9.476;2023-06-22T03:49:33;18.30;;;4.40;;
42478;SDS011;28110;47.080;9.476;2023-06-22T03:51:59;17.92;;;4.30;;
42478;SDS011;28110;47.080;9.476;2023-06-22T03:54:28;20.17;;;4.20;;
42478;SDS011;28110;47.080;9.476;2023-06-22T03:56:53;18.83;;;4.07;;
42478;SDS011;28110;47.080;9.476;2023-06-22T03:59:19;19.13;;;4.47;;
42478;SDS011;28110;47.080;9.476;2023-06-22T04:01:45;19.13;;;4.93;;
42478;SDS011;28110;47.080;9.476;2023-06-22T04:04:11;15.95;;;4.10;;
42478;SDS011;28110;47.080;9.476;2023-06-22T04:06:37;21.75;;;4.60;;
42478;SDS011;28110;47.080;9.476;2023-06-22T04:09:03;20.70;;;4.80;;
42478;SDS011;28110;47.080;9.476;2023-06-22T04:11:28;20.73;;;4.30;;
42478;SDS011;28110;47.080;9.476;2023-06-22T04:13:54;19.97;;;4.90;;
42478;SDS011;28110;47.080;9.476;2023-06-22T04:16:20;18.52;;;4.30;;
42478;SDS011;28110;47.080;9.476;2023-06-22T04:18:46;22.70;;;4.57;;
42478;SDS011;28110;47.080;9.476;2023-06-22T04:21:11;18.53;;;4.63;;
42478;SDS011;28110;47.080;9.476;2023-06-22T04:23:38;16.33;;;4.38;;
42478;SDS011;28110;47.080;9.476;2023-06-22T04:26:03;18.73;;;4.37;;
42478;SDS011;28110;47.080;9.476;2023-06-22T04:28:29;15.68;;;4.32;;
42478;SDS011;28110;47.080;9.476;2023-06-22T04:30:59;21.65;;;4.80;;
42478;SDS011;28110;47.080;9.476;2023-06-22T04:33:27;18.05;;;4.30;;
42478;SDS011;28110;47.080;9.476;2023-06-22T04:35:54;17.90;;;4.97;;
42478;SDS011;28110;47.080;9.476;2023-06-22T04:38:22;17.83;;;4.70;;
42478;SDS011;28110;47.080;9.476;2023-06-22T04:40:48;20.90;;;4.57;;
42478;SDS011;28110;47.080;9.476;2023-06-22T04:43:14;21.13;;;5.45;;
42478;SDS011;28110;47.080;9.476;2023-06-22T04:45:39;14.80;;;4.03;;
42478;SDS011;28110;47.080;9.476;2023-06-22T04:48:05;26.03;;;4.40;;
42478;SDS011;28110;47.080;9.476;2023-06-22T04:50:31;19.50;;;5.22;;
42478;SDS011;28110;47.080;9.476;2023-06-22T04:52:56;21.10;;;4.50;;
42478;SDS011;28110;47.080;9.476;2023-06-22T04:55:22;20.48;;;5.00;;
42478;SDS011;28110;47.080;9.476;2023-06-22T04:57:50;17.95;;;4.30;;
42478;SDS011;28110;47.080;9.476;2023-06-22T05:00:16;22.87;;;4.77;;
42478;SDS011;28110;47.080;9.476;2023-06-22T05:02:47;22.92;;;4.85;;
42478;SDS011;28110;47.080;9.476;2023-06-22T05:05:14;27.60;;;4.43;;
42478;SDS011;28110;47.080;9.476;2023-06-22T05:07:43;18.57;;;4.57;;
42478;SDS011;28110;47.080;9.476;2023-06-22T05:10:17;23.25;;;4.70;;
42478;SDS011;28110;47.080;9.476;2023-06-22T05:12:44;18.92;;;4.80;;
42478;SDS011;28110;47.080;9.476;2023-06-22T05:15:10;19.65;;;4.35;;
42478;SDS011;28110;47.080;9.476;2023-06-22T05:17:36;17.30;;;5.53;;
42478;SDS011;28110;47.080;9.476;2023-06-22T05:20:07;16.67;;;5.25;;
42478;SDS011;28110;47.080;9.476;2023-06-22T05:22:37;17.45;;;5.40;;
42478;SDS011;28110;47.080;9.476;2023-06-22T05:25:04;19.45;;;4.50;;
42478;SDS011;28110;47.080;9.476;2023-06-22T05:27:35;17.02;;;4.80;;
42478;SDS011;28110;47.080;9.476;2023-06-22T05:30:04;13.27;;;5.03;;
42478;SDS011;28110;47.080;9.476;2023-06-22T05:32:31;15.35;;;4.55;;
42478;SDS011;28110;47.080;9.476;2023-06-22T05:34:57;14.32;;;5.40;;
42478;SDS011;28110;47.080;9.476;2023-06-22T05:37:22;16.67;;;5.17;;
42478;SDS011;28110;47.080;9.476;2023-06-22T05:39:48;18.03;;;5.40;;
42478;SDS011;28110;47.080;9.476;2023-06-22T05:42:13;16.43;;;5.43;;
42478;SDS011;28110;47.080;9.476;2023-06-22T05:44:39;16.10;;;5.35;;
42478;SDS011;28110;47.080;9.476;2023-06-22T05:47:05;19.92;;;5.28;;
42478;SDS011;28110;47.080;9.476;2023-06-22T05:49:31;18.13;;;5.10;;
42478;SDS011;28110;47.080;9.476;2023-06-22T05:51:57;20.08;;;4.80;;
42478;SDS011;28110;47.080;9.476;2023-06-22T05:54:24;26.30;;;4.97;;
42478;SDS011;28110;47.080;9.476;2023-06-22T05:56:49;22.50;;;4.50;;
42478;SDS011;28110;47.080;9.476;2023-06-22T05:59:15;17.90;;;4.97;;
42478;SDS011;28110;47.080;9.476;2023-06-22T06:01:40;20.33;;;4.80;;
42478;SDS011;28110;47.080;9.476;2023-06-22T06:04:06;19.77;;;4.40;;
42478;SDS011;28110;47.080;9.476;2023-06-22T06:06:34;22.17;;;5.22;;
42478;SDS011;28110;47.080;9.476;2023-06-22T06:09:02;26.83;;;4.60;;
42478;SDS011;28110;47.080;9.476;2023-06-22T06:11:29;22.60;;;4.73;;
42478;SDS011;28110;47.080;9.476;2023-06-22T06:13:54;20.45;;;4.38;;
42478;SDS011;28110;47.080;9.476;2023-06-22T06:16:20;18.40;;;4.40;;
42478;SDS011;28110;47.080;9.476;2023-06-22T06:18:45;23.63;;;5.00;;
42478;SDS011;28110;47.080;9.476;2023-06-22T06:21:11;18.75;;;4.53;;
42478;SDS011;28110;47.080;9.476;2023-06-22T06:23:36;17.60;;;4.17;;
42478;SDS011;28110;47.080;9.476;2023-06-22T06:26:02;23.87;;;5.13;;
42478;SDS011;28110;47.080;9.476;2023-06-22T06:28:31;24.35;;;4.85;;
42478;SDS011;28110;47.080;9.476;2023-06-22T06:30:57;24.52;;;4.95;;
42478;SDS011;28110;47.080;9.476;2023-06-22T06:33:23;26.97;;;5.23;;
42478;SDS011;28110;47.080;9.476;2023-06-22T06:35:49;18.02;;;4.82;;
42478;SDS011;28110;47.080;9.476;2023-06-22T06:38:14;21.97;;;4.43;;
42478;SDS011;28110;47.080;9.476;2023-06-22T06:40:40;22.97;;;4.80;;
42478;SDS011;28110;47.080;9.476;2023-06-22T06:43:06;34.55;;;5.82;;
42478;SDS011;28110;47.080;9.476;2023-06-22T06:45:31;18.97;;;5.67;;
42478;SDS011;28110;47.080;9.476;2023-06-22T06:47:59;20.10;;;4.70;;
42478;SDS011;28110;47.080;9.476;2023-06-22T06:50:25;24.43;;;4.77;;
42478;SDS011;28110;47.080;9.476;2023-06-22T06:52:50;27.77;;;5.32;;
42478;SDS011;28110;47.080;9.476;2023-06-22T06:55:16;26.35;;;5.20;;
42478;SDS011;28110;47.080;9.476;2023-06-22T06:57:42;26.93;;;4.73;;
42478;SDS011;28110;47.080;9.476;2023-06-22T07:00:11;21.30;;;4.43;;
42478;SDS011;28110;47.080;9.476;2023-06-22T07:02:39;27.02;;;5.22;;
42478;SDS011;28110;47.080;9.476;2023-06-22T07:05:06;21.80;;;4.38;;
42478;SDS011;28110;47.080;9.476;2023-06-22T07:07:32;23.80;;;5.33;;
42478;SDS011;28110;47.080;9.476;2023-06-22T07:09:58;29.52;;;4.72;;
42478;SDS011;28110;47.080;9.476;2023-06-22T07:12:23;21.75;;;4.70;;
42478;SDS011;28110;47.080;9.476;2023-06-22T07:14:49;22.53;;;4.83;;
42478;SDS011;28110;47.080;9.476;2023-06-22T07:17:16;28.88;;;5.43;;
42478;SDS011;28110;47.080;9.476;2023-06-22T07:19:41;26.40;;;5.70;;
42478;SDS011;28110;47.080;9.476;2023-06-22T07:22:07;27.60;;;5.47;;
42478;SDS011;28110;47.080;9.476;2023-06-22T07:24:33;26.27;;;4.67;;
42478;SDS011;28110;47.080;9.476;2023-06-22T07:26:58;24.58;;;4.72;;
42478;SDS011;28110;47.080;9.476;2023-06-22T07:29:24;24.47;;;5.23;;
42478;SDS011;28110;47.080;9.476;2023-06-22T07:31:52;21.08;;;4.65;;
42478;SDS011;28110;47.080;9.476;2023-06-22T07:34:18;20.80;;;5.68;;
42478;SDS011;28110;47.080;9.476;2023-06-22T07:36:44;21.02;;;4.85;;
42478;SDS011;28110;47.080;9.476;2023-06-22T07:39:10;27.77;;;5.05;;
42478;SDS011;28110;47.080;9.476;2023-06-22T07:41:38;22.33;;;4.63;;
42478;SDS011;28110;47.080;9.476;2023-06-22T07:44:05;22.60;;;4.85;;
42478;SDS011;28110;47.080;9.476;2023-06-22T07:46:31;24.98;;;5.07;;
42478;SDS011;28110;47.080;9.476;2023-06-22T07:48:57;21.83;;;4.60;;
42478;SDS011;28110;47.080;9.476;2023-06-22T07:51:23;24.55;;;4.63;;
42478;SDS011;28110;47.080;9.476;2023-06-22T07:53:49;22.58;;;4.57;;
42478;SDS011;28110;47.080;9.476;2023-06-22T07:56:14;18.20;;;5.47;;
42478;SDS011;28110;47.080;9.476;2023-06-22T07:58:44;25.73;;;5.20;;
42478;SDS011;28110;47.080;9.476;2023-06-22T08:01:10;25.45;;;5.10;;
42478;SDS011;28110;47.080;9.476;2023-06-22T08:03:36;26.13;;;4.50;;
42478;SDS011;28110;47.080;9.476;2023-06-22T08:06:02;27.97;;;4.30;;
42478;SDS011;28110;47.080;9.476;2023-06-22T08:08:28;21.52;;;4.38;;
42478;SDS011;28110;47.080;9.476;2023-06-22T08:10:54;25.23;;;5.23;;
42478;SDS011;28110;47.080;9.476;2023-06-22T08:13:19;21.63;;;4.67;;
42478;SDS011;28110;47.080;9.476;2023-06-22T08:15:45;23.27;;;5.40;;
42478;SDS011;28110;47.080;9.476;2023-06-22T08:18:10;30.50;;;4.60;;
42478;SDS011;28110;47.080;9.476;2023-06-22T08:20:36;27.77;;;5.30;;
42478;SDS011;28110;47.080;9.476;2023-06-22T08:23:01;20.50;;;5.30;;
42478;SDS011;28110;47.080;9.476;2023-06-22T08:25:31;28.67;;;5.15;;
42478;SDS011;28110;47.080;9.476;2023-06-22T08:27:57;24.63;;;4.50;;
42478;SDS011;28110;47.080;9.476;2023-06-22T08:30:23;21.77;;;4.30;;
42478;SDS011;28110;47.080;9.476;2023-06-22T08:32:49;18.53;;;4.73;;
42478;SDS011;28110;47.080;9.476;2023-06-22T08:35:14;22.33;;;4.40;;
42478;SDS011;28110;47.080;9.476;2023-06-22T08:37:40;24.73;;;5.00;;
42478;SDS011;28110;47.080;9.476;2023-06-22T08:40:06;50.53;;;5.47;;
42478;SDS011;28110;47.080;9.476;2023-06-22T08:42:34;25.57;;;4.40;;
42478;SDS011;28110;47.080;9.476;2023-06-22T08:45:05;23.27;;;5.10;;
42478;SDS011;28110;47.080;9.476;2023-06-22T08:47:31;20.85;;;4.90;;
42478;SDS011;28110;47.080;9.476;2023-06-22T08:49:57;21.53;;;4.70;;
42478;SDS011;28110;47.080;9.476;2023-06-22T08:52:22;29.30;;;4.80;;
42478;SDS011;28110;47.080;9.476;2023-06-22T08:54:48;22.90;;;4.80;;
42478;SDS011;28110;47.080;9.476;2023-06-22T08:57:14;19.45;;;4.82;;
42478;SDS011;28110;47.080;9.476;2023-06-22T08:59:40;30.08;;;6.13;;
42478;SDS011;28110;47.080;9.476;2023-06-22T09:02:07;21.37;;;4.67;;
42478;SDS011;28110;47.080;9.476;2023-06-22T09:04:32;30.92;;;5.85;;
42478;SDS011;28110;47.080;9.476;2023-06-22T09:07:00;28.80;;;4.80;;
42478;SDS011;28110;47.080;9.476;2023-06-22T09:09:26;32.33;;;6.17;;
42478;SDS011;28110;47.080;9.476;2023-06-22T09:11:51;20.98;;;5.45;;
42478;SDS011;28110;47.080;9.476;2023-06-22T09:14:17;26.53;;;4.97;;
42478;SDS011;28110;47.080;9.476;2023-06-22T09:16:42;22.33;;;5.17;;
42478;SDS011;28110;47.080;9.476;2023-06-22T09:19:08;27.85;;;5.50;;
42478;SDS011;28110;47.080;9.476;2023-06-22T09:21:34;26.83;;;4.90;;
42478;SDS011;28110;47.080;9.476;2023-06-22T09:23:59;18.17;;;4.85;;
42478;SDS011;28110;47.080;9.476;2023-06-22T09:26:25;18.30;;;5.03;;
42478;SDS011;28110;47.080;9.476;2023-06-22T09:28:50;31.87;;;5.03;;
42478;SDS011;28110;47.080;9.476;2023-06-22T09:31:16;25.00;;;4.57;;
42478;SDS011;28110;47.080;9.476;2023-06-22T09:33:42;21.50;;;5.07;;
42478;SDS011;28110;47.080;9.476;2023-06-22T09:36:08;22.85;;;5.63;;
42478;SDS011;28110;47.080;9.476;2023-06-22T09:38:37;21.00;;;5.93;;
42478;SDS011;28110;47.080;9.476;2023-06-22T09:41:02;23.97;;;5.67;;
42478;SDS011;28110;47.080;9.476;2023-06-22T09:43:29;23.40;;;5.05;;
42478;SDS011;28110;47.080;9.476;2023-06-22T09:45:57;17.63;;;4.95;;
42478;SDS011;28110;47.080;9.476;2023-06-22T09:48:22;24.97;;;5.40;;
42478;SDS011;28110;47.080;9.476;2023-06-22T09:50:48;19.75;;;4.95;;
42478;SDS011;28110;47.080;9.476;2023-06-22T09:53:13;24.90;;;5.50;;
42478;SDS011;28110;47.080;9.476;2023-06-22T09:55:39;18.33;;;5.83;;
42478;SDS011;28110;47.080;9.476;2023-06-22T09:58:04;31.52;;;6.18;;
42478;SDS011;28110;47.080;9.476;2023-06-22T10:00:30;28.90;;;7.13;;
42478;SDS011;28110;47.080;9.476;2023-06-22T10:02:55;27.63;;;7.00;;
42478;SDS011;28110;47.080;9.476;2023-06-22T10:05:22;22.35;;;6.50;;
42478;SDS011;28110;47.080;9.476;2023-06-22T10:07:47;18.00;;;5.90;;
42478;SDS011;28110;47.080;9.476;2023-06-22T10:10:13;14.90;;;5.07;;
42478;SDS011;28110;47.080;9.476;2023-06-22T10:12:44;19.95;;;6.30;;
42478;SDS011;28110;47.080;9.476;2023-06-22T10:15:11;22.00;;;6.00;;
42478;SDS011;28110;47.080;9.476;2023-06-22T10:17:37;43.83;;;6.25;;
42478;SDS011;28110;47.080;9.476;2023-06-22T10:20:03;29.80;;;5.97;;
42478;SDS011;28110;47.080;9.476;2023-06-22T10:22:36;20.63;;;5.90;;
42478;SDS011;28110;47.080;9.476;2023-06-22T10:25:03;42.78;;;6.38;;
42478;SDS011;28110;47.080;9.476;2023-06-22T10:27:29;16.95;;;5.80;;
42478;SDS011;28110;47.080;9.476;2023-06-22T10:29:54;19.63;;;6.80;;
42478;SDS011;28110;47.080;9.476;2023-06-22T10:32:20;16.83;;;6.88;;
42478;SDS011;28110;47.080;9.476;2023-06-22T10:34:45;18.90;;;6.43;;
42478;SDS011;28110;47.080;9.476;2023-06-22T10:37:11;18.77;;;6.80;;
42478;SDS011;28110;47.080;9.476;2023-06-22T10:39:36;21.30;;;6.80;;
42478;SDS011;28110;47.080;9.476;2023-06-22T10:42:02;25.02;;;6.97;;
42478;SDS011;28110;47.080;9.476;2023-06-22T10:44:27;16.33;;;7.20;;
42478;SDS011;28110;47.080;9.476;2023-06-22T10:46:53;18.83;;;7.15;;
42478;SDS011;28110;47.080;9.476;2023-06-22T10:49:18;18.40;;;6.93;;
42478;SDS011;28110;47.080;9.476;2023-06-22T10:51:44;14.13;;;6.90;;
42478;SDS011;28110;47.080;9.476;2023-06-22T10:54:09;20.70;;;7.47;;
42478;SDS011;28110;47.080;9.476;2023-06-22T10:56:35;18.23;;;7.20;;
42478;SDS011;28110;47.080;9.476;2023-06-22T10:59:01;24.17;;;7.50;;
42478;SDS011;28110;47.080;9.476;2023-06-22T11:01:26;20.23;;;7.03;;
42478;SDS011;28110;47.080;9.476;2023-06-22T11:03:53;22.40;;;7.55;;
42478;SDS011;28110;47.080;9.476;2023-06-22T11:06:18;16.17;;;7.07;;
42478;SDS011;28110;47.080;9.476;2023-06-22T11:08:44;20.07;;;7.27;;
42478;SDS011;28110;47.080;9.476;2023-06-22T11:11:10;19.35;;;7.10;;
42478;SDS011;28110;47.080;9.476;2023-06-22T11:13:36;19.13;;;8.18;;
42478;SDS011;28110;47.080;9.476;2023-06-22T11:16:01;16.30;;;6.97;;
42478;SDS011;28110;47.080;9.476;2023-06-22T11:18:27;21.83;;;7.50;;
42478;SDS011;28110;47.080;9.476;2023-06-22T11:20:52;16.15;;;7.18;;
42478;SDS011;28110;47.080;9.476;2023-06-22T11:23:18;14.63;;;6.93;;
42478;SDS011;28110;47.080;9.476;2023-06-22T11:25:44;17.52;;;6.63;;
42478;SDS011;28110;47.080;9.476;2023-06-22T11:28:11;17.20;;;6.60;;
42478;SDS011;28110;47.080;9.476;2023-06-22T11:30:36;13.25;;;5.90;;
42478;SDS011;28110;47.080;9.476;2023-06-22T11:33:02;21.57;;;6.73;;
42478;SDS011;28110;47.080;9.476;2023-06-22T11:35:27;23.38;;;6.80;;
42478;SDS011;28110;47.080;9.476;2023-06-22T11:37:53;19.87;;;7.43;;
42478;SDS011;28110;47.080;9.476;2023-06-22T11:40:19;17.10;;;7.10;;
42478;SDS011;28110;47.080;9.476;2023-06-22T11:42:44;17.40;;;6.82;;
42478;SDS011;28110;47.080;9.476;2023-06-22T11:45:10;25.23;;;6.97;;
42478;SDS011;28110;47.080;9.476;2023-06-22T11:47:36;24.23;;;7.40;;
42478;SDS011;28110;47.080;9.476;2023-06-22T11:50:02;28.83;;;7.87;;
42478;SDS011;28110;47.080;9.476;2023-06-22T11:52:28;23.58;;;8.05;;
42478;SDS011;28110;47.080;9.476;2023-06-22T11:54:53;17.03;;;7.73;;
42478;SDS011;28110;47.080;9.476;2023-06-22T11:57:19;20.45;;;7.65;;
42478;SDS011;28110;47.080;9.476;2023-06-22T11:59:44;20.63;;;7.67;;
42478;SDS011;28110;47.080;9.476;2023-06-22T12:02:10;13.13;;;7.37;;
42478;SDS011;28110;47.080;9.476;2023-06-22T12:04:36;25.98;;;7.10;;
42478;SDS011;28110;47.080;9.476;2023-06-22T12:07:01;18.67;;;7.13;;
42478;SDS011;28110;47.080;9.476;2023-06-22T12:09:27;14.68;;;7.32;;
42478;SDS011;28110;47.080;9.476;2023-06-22T12:11:53;19.60;;;7.60;;
42478;SDS011;28110;47.080;9.476;2023-06-22T12:14:18;18.03;;;8.17;;
42478;SDS011;28110;47.080;9.476;2023-06-22T12:16:44;21.88;;;7.65;;
42478;SDS011;28110;47.080;9.476;2023-06-22T12:19:09;20.60;;;7.97;;
42478;SDS011;28110;47.080;9.476;2023-06-22T12:21:36;23.17;;;7.63;;
42478;SDS011;28110;47.080;9.476;2023-06-22T12:24:02;22.83;;;7.65;;
42478;SDS011;28110;47.080;9.476;2023-06-22T12:26:28;21.00;;;7.57;;
42478;SDS011;28110;47.080;9.476;2023-06-22T12:28:53;19.40;;;7.43;;
42478;SDS011;28110;47.080;9.476;2023-06-22T12:31:19;14.20;;;7.20;;
42478;SDS011;28110;47.080;9.476;2023-06-22T12:33:44;15.73;;;7.50;;
42478;SDS011;28110;47.080;9.476;2023-06-22T12:36:10;21.87;;;8.30;;
42478;SDS011;28110;47.080;9.476;2023-06-22T12:38:36;21.10;;;7.93;;
42478;SDS011;28110;47.080;9.476;2023-06-22T12:41:01;23.63;;;8.20;;
42478;SDS011;28110;47.080;9.476;2023-06-22T12:43:27;20.17;;;7.70;;
42478;SDS011;28110;47.080;9.476;2023-06-22T12:45:53;20.57;;;8.20;;
42478;SDS011;28110;47.080;9.476;2023-06-22T12:48:18;24.00;;;8.88;;
42478;SDS011;28110;47.080;9.476;2023-06-22T12:50:44;25.03;;;8.30;;
42478;SDS011;28110;47.080;9.476;2023-06-22T12:53:10;19.85;;;7.35;;
42478;SDS011;28110;47.080;9.476;2023-06-22T12:55:36;15.77;;;8.53;;
42478;SDS011;28110;47.080;9.476;2023-06-22T12:58:01;20.70;;;8.17;;
42478;SDS011;28110;47.080;9.476;2023-06-22T13:00:27;19.50;;;8.20;;
42478;SDS011;28110;47.080;9.476;2023-06-22T13:02:52;22.93;;;8.33;;
42478;SDS011;28110;47.080;9.476;2023-06-22T13:05:18;23.93;;;8.90;;
42478;SDS011;28110;47.080;9.476;2023-06-22T13:07:44;21.33;;;7.75;;
42478;SDS011;28110;47.080;9.476;2023-06-22T13:10:10;20.33;;;8.38;;
42478;SDS011;28110;47.080;9.476;2023-06-22T13:12:36;24.47;;;8.53;;
42478;SDS011;28110;47.080;9.476;2023-06-22T13:15:01;26.17;;;9.40;;
42478;SDS011;28110;47.080;9.476;2023-06-22T13:17:28;15.23;;;9.10;;
42478;SDS011;28110;47.080;9.476;2023-06-22T13:19:53;19.38;;;8.60;;
42478;SDS011;28110;47.080;9.476;2023-06-22T13:22:32;22.50;;;8.77;;
42478;SDS011;28110;47.080;9.476;2023-06-22T13:25:04;16.38;;;7.97;;
42478;SDS011;28110;47.080;9.476;2023-06-22T13:27:30;20.42;;;7.82;;
42478;SDS011;28110;47.080;9.476;2023-06-22T13:29:56;19.60;;;8.53;;
42478;SDS011;28110;47.080;9.476;2023-06-22T13:32:22;17.83;;;8.15;;
42478;SDS011;28110;47.080;9.476;2023-06-22T13:34:47;17.87;;;9.13;;
42478;SDS011;28110;47.080;9.476;2023-06-22T13:37:13;23.60;;;8.03;;
42478;SDS011;28110;47.080;9.476;2023-06-22T13:39:38;26.05;;;8.07;;
42478;SDS011;28110;47.080;9.476;2023-06-22T13:42:04;19.43;;;8.00;;
42478;SDS011;28110;47.080;9.476;2023-06-22T13:44:30;18.27;;;8.20;;
42478;SDS011;28110;47.080;9.476;2023-06-22T13:46:56;21.70;;;8.40;;
42478;SDS011;28110;47.080;9.476;2023-06-22T13:49:21;19.43;;;8.10;;
42478;SDS011;28110;47.080;9.476;2023-06-22T13:51:47;19.30;;;8.65;;
42478;SDS011;28110;47.080;9.476;2023-06-22T13:54:13;17.03;;;7.50;;
42478;SDS011;28110;47.080;9.476;2023-06-22T13:56:39;20.80;;;8.80;;
42478;SDS011;28110;47.080;9.476;2023-06-22T13:59:04;25.27;;;8.30;;
42478;SDS011;28110;47.080;9.476;2023-06-22T14:01:31;20.48;;;7.88;;
42478;SDS011;28110;47.080;9.476;2023-06-22T14:03:57;18.48;;;8.05;;
42478;SDS011;28110;47.080;9.476;2023-06-22T14:06:22;17.67;;;7.10;;
42478;SDS011;28110;47.080;9.476;2023-06-22T14:08:48;15.23;;;7.93;;
42478;SDS011;28110;47.080;9.476;2023-06-22T14:11:14;18.13;;;7.45;;
42478;SDS011;28110;47.080;9.476;2023-06-22T14:13:40;23.23;;;7.07;;
42478;SDS011;28110;47.080;9.476;2023-06-22T14:16:07;19.90;;;6.93;;
42478;SDS011;28110;47.080;9.476;2023-06-22T14:18:33;19.20;;;7.20;;
42478;SDS011;28110;47.080;9.476;2023-06-22T14:20:58;22.20;;;8.00;;
42478;SDS011;28110;47.080;9.476;2023-06-22T14:23:24;24.47;;;7.67;;
42478;SDS011;28110;47.080;9.476;2023-06-22T14:25:50;19.30;;;7.63;;
42478;SDS011;28110;47.080;9.476;2023-06-22T14:28:15;25.33;;;7.50;;
42478;SDS011;28110;47.080;9.476;2023-06-22T14:30:41;19.00;;;7.25;;
42478;SDS011;28110;47.080;9.476;2023-06-22T14:33:07;19.27;;;7.37;;